createdAt,value
2019-02-09T00:00:46.200Z,64.00
2019-02-09T00:03:17.181Z,64.00
2019-02-09T00:05:48.325Z,64.00
2019-02-09T00:08:19.487Z,64.00
2019-02-09T00:10:50.620Z,64.00
2019-02-09T00:13:22.279Z,64.20
2019-02-09T00:15:53.348Z,64.10
2019-02-09T00:18:24.314Z,64.00
2019-02-09T00:20:55.268Z,64.80
2019-02-09T00:23:26.422Z,64.00
2019-02-09T00:25:57.336Z,64.00
2019-02-09T00:28:28.298Z,64.00
2019-02-09T00:30:59.361Z,63.90
2019-02-09T00:33:30.503Z,63.80
2019-02-09T00:36:01.677Z,63.80
2019-02-09T00:38:32.838Z,63.80
2019-02-09T00:41:03.878Z,63.80
2019-02-09T00:43:34.824Z,63.60
2019-02-09T00:46:06.185Z,63.50
2019-02-09T00:48:37.158Z,63.40
2019-02-09T00:51:09.337Z,63.40
2019-02-09T00:53:40.443Z,63.20
2019-02-09T00:56:11.616Z,63.00
2019-02-09T00:58:42.673Z,63.00
2019-02-09T01:01:13.668Z,63.00
2019-02-09T01:03:44.842Z,63.00
2019-02-09T01:06:15.773Z,62.90
2019-02-09T01:08:47.000Z,62.80
2019-02-09T01:11:18.054Z,62.80
2019-02-09T01:13:49.164Z,62.60
2019-02-09T01:16:20.218Z,62.50
2019-02-09T01:18:51.417Z,62.50
2019-02-09T01:21:22.548Z,62.30
2019-02-09T01:23:53.489Z,62.20
2019-02-09T01:26:24.579Z,62.10
2019-02-09T01:28:55.558Z,62.10
2019-02-09T01:31:26.574Z,62.10
2019-02-09T01:33:57.549Z,62.00
2019-02-09T01:36:28.566Z,61.90
2019-02-09T01:38:59.811Z,61.80
2019-02-09T01:41:30.814Z,61.80
2019-02-09T01:44:02.003Z,61.80
2019-02-09T01:46:32.893Z,61.90
2019-02-09T01:49:03.997Z,61.80
2019-02-09T01:51:34.914Z,61.80
2019-02-09T01:54:06.084Z,61.80
2019-02-09T01:56:38.132Z,61.80
2019-02-09T01:59:09.273Z,61.80
2019-02-09T02:01:40.554Z,61.80
2019-02-09T02:04:11.689Z,61.90
2019-02-09T02:06:42.713Z,61.90
2019-02-09T02:09:13.813Z,62.00
2019-02-09T02:11:44.828Z,62.00
2019-02-09T02:14:15.846Z,62.20
2019-02-09T02:16:46.903Z,62.30
2019-02-09T02:19:17.843Z,62.30
2019-02-09T02:21:48.747Z,62.30
2019-02-09T02:24:19.802Z,62.50
2019-02-09T02:26:50.726Z,62.40
2019-02-09T02:29:21.622Z,62.40
2019-02-09T02:31:52.564Z,62.50
2019-02-09T02:34:23.697Z,62.50
2019-02-09T02:36:54.616Z,62.60
2019-02-09T02:39:25.583Z,62.70
2019-02-09T02:41:56.535Z,62.50
2019-02-09T02:44:27.600Z,62.40
2019-02-09T02:46:58.715Z,62.30
2019-02-09T02:49:29.835Z,62.20
2019-02-09T02:52:00.723Z,62.00
2019-02-09T02:54:31.881Z,62.80
2019-02-09T02:57:02.810Z,61.90
2019-02-09T02:59:33.984Z,62.00
2019-02-09T03:02:05.314Z,62.00
2019-02-09T03:04:36.345Z,62.10
2019-02-09T03:07:07.945Z,62.20
2019-02-09T03:09:39.109Z,62.20
2019-02-09T03:12:10.142Z,62.30
2019-02-09T03:14:41.273Z,62.30
2019-02-09T03:17:12.209Z,62.30
2019-02-09T03:19:43.173Z,62.20
2019-02-09T03:22:14.330Z,62.20
2019-02-09T03:24:45.267Z,62.20
2019-02-09T03:27:16.264Z,61.90
2019-02-09T03:29:47.327Z,61.90
2019-02-09T03:32:18.409Z,61.90
2019-02-09T03:34:49.434Z,61.90
2019-02-09T03:37:20.326Z,61.80
2019-02-09T03:39:51.325Z,61.80
2019-02-09T03:42:22.389Z,61.90
2019-02-09T03:44:53.411Z,61.90
2019-02-09T03:47:24.411Z,62.00
2019-02-09T03:49:55.487Z,62.00
2019-02-09T03:52:26.450Z,62.00
2019-02-09T03:54:58.540Z,61.90
2019-02-09T03:57:29.741Z,62.00
2019-02-09T04:00:00.932Z,62.00
2019-02-09T04:02:32.034Z,62.20
2019-02-09T04:05:02.994Z,61.70
2019-02-09T04:07:34.013Z,62.10
2019-02-09T04:10:06.060Z,62.10
2019-02-09T04:12:37.054Z,62.00
2019-02-09T04:15:09.350Z,62.00
2019-02-09T04:17:40.258Z,62.20
2019-02-09T04:20:13.095Z,61.90
2019-02-09T04:22:44.150Z,61.80
2019-02-09T04:25:16.680Z,61.60
2019-02-09T04:27:47.943Z,61.50
2019-02-09T04:30:27.474Z,61.60
2019-02-09T04:32:58.751Z,61.50
2019-02-09T04:35:30.056Z,61.50
2019-02-09T04:38:01.044Z,61.50
2019-02-09T04:40:32.853Z,61.40
2019-02-09T04:43:03.914Z,61.30
2019-02-09T04:45:34.845Z,61.20
2019-02-09T04:48:06.237Z,61.10
2019-02-09T04:50:37.377Z,61.10
2019-02-09T04:53:09.344Z,61.00
2019-02-09T04:55:40.521Z,60.90
2019-02-09T04:58:11.450Z,61.00
2019-02-09T05:00:45.035Z,60.80
2019-02-09T05:03:16.217Z,60.60
2019-02-09T05:05:47.640Z,60.20
2019-02-09T05:08:18.545Z,60.00
2019-02-09T05:10:49.745Z,59.40
2019-02-09T05:13:20.703Z,58.90
2019-02-09T05:15:51.763Z,59.30
2019-02-09T05:18:22.716Z,58.80
2019-02-09T05:20:53.729Z,58.50
2019-02-09T05:23:24.696Z,58.40
2019-02-09T05:25:55.764Z,58.40
2019-02-09T05:28:27.157Z,58.10
2019-02-09T05:31:08.563Z,57.90
2019-02-09T05:33:40.804Z,57.80
2019-02-09T05:36:11.807Z,57.60
2019-02-09T05:41:33.802Z,57.60
2019-02-09T05:44:05.181Z,57.50
2019-02-09T05:46:36.206Z,57.60
2019-02-09T05:49:07.127Z,57.60
2019-02-09T05:51:38.114Z,57.60
2019-02-09T05:54:09.234Z,57.60
2019-02-09T05:56:40.219Z,57.30
2019-02-09T05:59:11.548Z,57.10
2019-02-09T06:01:42.545Z,57.00
2019-02-09T06:04:13.445Z,56.80
2019-02-09T06:06:55.228Z,56.90
2019-02-09T06:09:38.174Z,56.90
2019-02-09T06:12:09.164Z,56.90
2019-02-09T06:14:40.329Z,56.50
2019-02-09T06:17:11.544Z,56.40
2019-02-09T06:19:42.473Z,56.30
2019-02-09T06:22:13.675Z,56.30
2019-02-09T06:24:44.621Z,55.90
2019-02-09T06:27:15.772Z,55.60
2019-02-09T06:29:46.766Z,55.60
2019-02-09T06:32:18.589Z,55.40
2019-02-09T06:34:49.723Z,55.30
2019-02-09T06:37:21.398Z,55.30
2019-02-09T06:39:52.933Z,55.20
2019-02-09T06:42:24.901Z,54.80
2019-02-09T06:44:56.621Z,55.40
2019-02-09T06:47:28.295Z,54.70
2019-02-09T06:49:59.465Z,54.80
2019-02-09T06:52:30.584Z,54.60
2019-02-09T06:55:01.684Z,54.60
2019-02-09T06:57:32.783Z,54.60
2019-02-09T07:00:03.787Z,54.70
2019-02-09T07:02:35.552Z,54.80
2019-02-09T07:05:07.987Z,54.80
2019-02-09T07:07:39.078Z,54.60
2019-02-09T07:10:10.915Z,54.70
2019-02-09T07:12:42.264Z,54.60
2019-02-09T07:15:16.463Z,54.60
2019-02-09T07:17:47.735Z,54.60
2019-02-09T07:20:19.083Z,54.50
2019-02-09T07:22:50.342Z,54.60
2019-02-09T07:25:21.545Z,54.80
2019-02-09T07:27:53.364Z,54.90
2019-02-09T07:30:26.375Z,55.10
2019-02-09T07:32:58.520Z,55.10
2019-02-09T07:35:29.722Z,55.20
2019-02-09T07:38:01.234Z,55.50
2019-02-09T07:40:32.836Z,55.60
2019-02-09T07:43:07.067Z,55.40
2019-02-09T07:45:38.344Z,56.00
2019-02-09T07:48:09.359Z,55.30
2019-02-09T07:50:40.922Z,55.50
2019-02-09T07:53:12.328Z,55.70
2019-02-09T07:55:51.398Z,55.70
2019-02-09T07:58:24.407Z,55.80
2019-02-09T08:00:55.596Z,55.80
2019-02-09T08:03:26.642Z,55.90
2019-02-09T08:05:58.143Z,55.70
2019-02-09T08:08:29.904Z,55.80
2019-02-09T08:11:08.831Z,55.70
2019-02-09T08:13:33.575Z,55.40
2019-02-09T08:16:24.139Z,55.50
2019-02-09T08:18:55.165Z,55.80
2019-02-09T08:21:26.252Z,55.70
2019-02-09T08:23:57.337Z,56.30
2019-02-09T08:26:28.423Z,55.50
2019-02-09T08:29:00.075Z,55.60
2019-02-09T08:31:30.978Z,55.50
2019-02-09T08:34:02.129Z,55.40
2019-02-09T08:36:33.031Z,55.30
2019-02-09T08:39:06.206Z,54.70
2019-02-09T08:41:37.795Z,54.60
2019-02-09T08:44:08.790Z,54.60
2019-02-09T08:46:39.755Z,54.80
2019-02-09T08:49:11.136Z,54.10
2019-02-09T08:51:42.063Z,54.20
2019-02-09T08:54:13.153Z,53.80
2019-02-09T08:56:44.307Z,53.90
2019-02-09T08:59:16.854Z,53.90
2019-02-09T09:01:48.489Z,53.70
2019-02-09T09:04:20.175Z,53.80
2019-02-09T09:06:51.389Z,53.60
2019-02-09T09:09:22.453Z,53.50
2019-02-09T09:11:53.471Z,53.50
2019-02-09T09:14:26.130Z,54.40
2019-02-09T09:16:57.833Z,54.00
2019-02-09T09:19:29.861Z,54.00
2019-02-09T09:22:00.828Z,53.70
2019-02-09T09:24:31.948Z,53.70
2019-02-09T09:27:03.986Z,53.50
2019-02-09T09:29:35.045Z,53.50
2019-02-09T09:32:06.392Z,53.20
2019-02-09T09:34:37.529Z,53.00
2019-02-09T09:37:09.175Z,52.80
2019-02-09T09:39:40.296Z,52.80
2019-02-09T09:42:11.505Z,52.60
2019-02-09T09:44:42.713Z,52.30
2019-02-09T09:47:13.834Z,51.90
2019-02-09T09:49:44.809Z,52.10
2019-02-09T09:52:15.898Z,51.80
2019-02-09T09:54:47.028Z,52.00
2019-02-09T09:57:18.131Z,51.70
2019-02-09T09:59:50.320Z,51.00
2019-02-09T10:02:36.432Z,51.40
2019-02-09T10:05:07.832Z,51.30
2019-02-09T10:07:44.392Z,51.30
2019-02-09T10:10:25.016Z,51.20
2019-02-09T10:13:05.420Z,51.00
2019-02-09T10:15:39.109Z,50.90
2019-02-09T10:18:19.489Z,50.90
2019-02-09T10:20:52.008Z,51.10
2019-02-09T10:23:23.833Z,50.80
2019-02-09T10:25:54.635Z,50.00
2019-02-09T10:28:25.405Z,48.90
2019-02-09T10:30:56.192Z,48.20
2019-02-09T10:33:27.019Z,48.40
2019-02-09T10:38:40.294Z,48.10
2019-02-09T10:41:11.081Z,48.10
2019-02-09T10:43:45.275Z,48.50
2019-02-09T10:46:16.144Z,48.80
2019-02-09T10:48:46.981Z,49.00
2019-02-09T10:51:17.770Z,49.00
2019-02-09T10:53:48.548Z,49.00
2019-02-09T10:56:19.339Z,49.20
2019-02-09T10:58:50.534Z,49.70
2019-02-09T11:01:23.266Z,49.80
2019-02-09T11:03:54.076Z,49.70
2019-02-09T11:06:24.934Z,49.80
2019-02-09T11:09:12.670Z,49.50
2019-02-09T11:12:04.150Z,49.20
2019-02-09T11:14:47.927Z,49.00
2019-02-09T11:17:43.172Z,49.70
2019-02-09T11:20:16.932Z,49.80
2019-02-09T11:22:48.749Z,49.80
2019-02-09T11:25:20.732Z,50.60
2019-02-09T11:27:53.048Z,51.10
2019-02-09T11:30:28.067Z,51.50
2019-02-09T11:33:02.321Z,52.20
2019-02-09T11:35:34.202Z,52.80
2019-02-09T11:38:09.110Z,53.20
2019-02-09T11:40:42.513Z,53.60
2019-02-09T11:43:14.205Z,53.70
2019-02-09T11:45:55.746Z,54.20
2019-02-09T11:48:27.691Z,53.90
2019-02-09T11:51:00.218Z,53.60
2019-02-09T11:53:32.692Z,53.90
2019-02-09T11:56:05.647Z,53.80
2019-02-09T11:58:49.209Z,53.70
2019-02-09T12:01:21.370Z,53.60
2019-02-09T12:03:56.982Z,53.70
2019-02-09T12:06:30.336Z,54.00
2019-02-09T12:09:02.017Z,54.20
2019-02-09T12:11:35.533Z,54.40
2019-02-09T12:14:10.085Z,54.50
2019-02-09T12:16:42.307Z,54.50
2019-02-09T12:19:15.600Z,54.70
2019-02-09T12:21:47.152Z,55.10
2019-02-09T12:24:18.856Z,55.30
2019-02-09T12:26:50.734Z,56.00
2019-02-09T12:29:22.378Z,56.60
2019-02-09T12:31:54.602Z,56.90
2019-02-09T12:34:26.356Z,57.50
2019-02-09T12:36:57.587Z,57.90
2019-02-09T12:39:29.228Z,58.30
2019-02-09T12:42:01.073Z,59.00
2019-02-09T12:44:32.649Z,59.20
2019-02-09T12:47:04.504Z,59.90
2019-02-09T12:49:36.169Z,60.70
2019-02-09T12:52:08.122Z,61.40
2019-02-09T12:54:39.717Z,61.80
2019-02-09T12:57:11.481Z,62.40
2019-02-09T12:59:42.290Z,63.10
2019-02-09T13:02:13.098Z,64.30
2019-02-09T13:04:43.932Z,64.20
2019-02-09T13:07:14.775Z,64.40
2019-02-09T13:09:45.744Z,64.60
2019-02-09T13:12:16.762Z,64.90
2019-02-09T13:14:48.935Z,64.90
2019-02-09T13:17:21.205Z,65.10
2019-02-09T13:19:53.790Z,65.50
2019-02-09T13:22:25.696Z,65.40
2019-02-09T13:24:58.785Z,65.60
2019-02-09T13:27:30.790Z,65.90
2019-02-09T13:30:02.291Z,65.50
2019-02-09T13:33:11.541Z,65.90
2019-02-09T13:35:45.672Z,65.70
2019-02-09T13:47:39.424Z,67.40
2019-02-09T13:50:12.509Z,67.80
2019-02-09T13:52:43.605Z,67.80
2019-02-09T13:55:14.925Z,68.10
2019-02-09T13:57:46.002Z,68.40
2019-02-09T14:00:19.418Z,68.70
2019-02-09T14:02:51.808Z,68.50
2019-02-09T14:05:23.660Z,68.50
2019-02-09T14:07:54.967Z,68.90
2019-02-09T14:10:27.138Z,69.10
2019-02-09T14:12:58.292Z,69.00
2019-02-09T14:15:31.566Z,69.30
2019-02-09T14:18:05.846Z,69.40
2019-02-09T14:20:37.814Z,69.70
2019-02-09T14:23:09.851Z,69.90
2019-02-09T14:25:43.340Z,69.90
2019-02-09T14:28:14.549Z,70.00
2019-02-09T14:30:48.751Z,70.00
2019-02-09T14:33:21.091Z,70.00
2019-02-09T14:35:58.269Z,70.30
2019-02-09T14:38:32.734Z,70.20
2019-02-09T14:41:04.408Z,70.40
2019-02-09T14:43:36.125Z,70.50
2019-02-09T14:46:08.378Z,70.40
2019-02-09T14:48:43.036Z,70.40
2019-02-09T14:51:16.362Z,70.60
2019-02-09T14:53:47.508Z,70.70
2019-02-09T14:56:20.143Z,70.80
2019-02-09T14:58:51.427Z,70.90
2019-02-09T15:01:26.875Z,71.10
2019-02-09T15:04:02.804Z,70.90
2019-02-09T15:06:31.531Z,71.80
2019-02-09T15:09:04.601Z,71.20
2019-02-09T15:11:36.936Z,71.10
2019-02-09T15:14:08.087Z,71.20
2019-02-09T15:16:48.484Z,71.10
2019-02-09T15:19:22.138Z,71.10
2019-02-09T15:24:33.256Z,71.90
2019-02-09T15:27:08.005Z,71.90
2019-02-09T15:29:38.964Z,71.00
2019-02-09T15:32:10.245Z,71.10
2019-02-09T15:34:41.255Z,71.00
2019-02-09T15:37:12.464Z,70.90
2019-02-09T15:39:43.491Z,70.80
2019-02-09T15:42:16.038Z,71.00
2019-02-09T15:44:47.401Z,71.00
2019-02-09T15:47:18.426Z,70.90
2019-02-09T15:49:49.619Z,70.60
2019-02-09T15:52:20.709Z,70.60
2019-02-09T15:54:51.787Z,70.60
2019-02-09T15:58:24.990Z,70.50
2019-02-09T16:00:56.289Z,70.50
2019-02-09T16:03:27.916Z,70.30
2019-02-09T16:05:59.288Z,70.10
2019-02-09T16:08:30.953Z,70.10
2019-02-09T16:11:02.263Z,70.20
2019-02-09T16:13:33.501Z,70.10
2019-02-09T16:16:04.641Z,70.10
2019-02-09T16:18:35.681Z,69.90
2019-02-09T16:21:07.005Z,70.00
2019-02-09T16:23:38.412Z,69.90
2019-02-09T16:26:09.927Z,70.00
2019-02-09T16:28:41.570Z,70.00
2019-02-09T16:31:12.779Z,70.00
2019-02-09T16:33:43.933Z,70.10
2019-02-09T16:36:15.726Z,70.10
2019-02-09T16:38:46.996Z,70.20
2019-02-09T16:41:18.051Z,70.30
2019-02-09T16:43:49.076Z,70.30
2019-02-09T16:46:20.963Z,70.30
2019-02-09T16:48:52.094Z,70.50
2019-02-09T16:51:23.204Z,70.40
2019-02-09T16:53:54.298Z,70.30
2019-02-09T16:56:25.472Z,70.40
2019-02-09T16:58:56.428Z,70.20
2019-02-09T17:01:27.745Z,70.30
2019-02-09T17:03:58.728Z,70.40
2019-02-09T17:06:29.976Z,70.20
2019-02-09T17:09:01.051Z,70.40
2019-02-09T17:11:33.901Z,70.20
2019-02-09T17:14:05.217Z,70.20
2019-02-09T17:16:36.657Z,70.00
2019-02-09T17:19:08.128Z,69.80
2019-02-09T17:21:40.024Z,69.80
2019-02-09T17:24:11.759Z,69.80
2019-02-09T17:26:43.514Z,69.60
2019-02-09T17:29:15.224Z,69.40
2019-02-09T17:31:46.864Z,69.40
2019-02-09T17:34:18.628Z,69.20
2019-02-09T17:36:51.886Z,68.90
2019-02-09T17:39:23.865Z,68.60
2019-02-09T17:41:55.431Z,68.60
2019-02-09T17:44:26.866Z,68.50
2019-02-09T17:46:58.550Z,68.40
2019-02-09T17:49:30.327Z,68.40
2019-02-09T17:52:01.919Z,68.30
2019-02-09T17:54:33.486Z,68.30
2019-02-09T17:57:05.163Z,67.60
2019-02-09T17:59:36.797Z,67.70
2019-02-09T18:02:08.169Z,67.40
2019-02-09T18:04:38.946Z,67.50
2019-02-09T18:07:10.008Z,67.30
2019-02-09T18:09:40.893Z,67.30
2019-02-09T18:12:12.045Z,67.40
2019-02-09T18:14:42.909Z,67.30
2019-02-09T18:17:13.851Z,68.00
2019-02-09T18:19:44.603Z,67.50
2019-02-09T18:22:15.561Z,67.50
2019-02-09T18:24:46.418Z,67.60
2019-02-09T18:27:17.367Z,67.60
2019-02-09T18:29:48.344Z,67.60
2019-02-09T18:32:19.279Z,67.50
2019-02-09T18:34:56.019Z,67.30
2019-02-09T18:37:22.867Z,66.90
2019-02-09T18:39:53.731Z,66.80
2019-02-09T18:42:24.611Z,66.40
2019-02-09T18:44:55.411Z,66.10
2019-02-09T18:47:26.527Z,65.90
2019-02-09T18:49:57.289Z,65.60
2019-02-09T18:52:28.315Z,65.40
2019-02-09T18:54:59.143Z,65.20
2019-02-09T18:57:30.062Z,65.10
2019-02-09T19:00:00.993Z,65.00
2019-02-09T19:02:38.322Z,64.80
2019-02-09T19:05:06.313Z,64.70
2019-02-09T19:07:37.440Z,64.30
2019-02-09T19:10:11.480Z,64.00
2019-02-09T19:12:42.851Z,63.80
2019-02-09T19:15:14.281Z,63.90
2019-02-09T19:17:45.817Z,63.80
2019-02-09T19:20:27.508Z,63.70
2019-02-09T19:22:59.371Z,63.80
2019-02-09T19:25:31.171Z,63.90
2019-02-09T19:28:02.698Z,63.90
2019-02-09T19:30:35.612Z,63.90
2019-02-09T19:33:07.899Z,64.00
2019-02-09T19:35:39.119Z,64.00
2019-02-09T19:38:10.532Z,64.00
2019-02-09T19:40:41.934Z,64.90
2019-02-09T19:43:13.434Z,64.10
2019-02-09T19:45:44.659Z,64.20
2019-02-09T19:48:16.164Z,64.10
2019-02-09T19:50:48.850Z,64.20
2019-02-09T19:53:20.536Z,64.10
2019-02-09T19:55:51.940Z,64.10
2019-02-09T19:58:24.458Z,64.00
2019-02-09T20:00:55.735Z,64.00
2019-02-09T20:03:27.143Z,63.90
2019-02-09T20:05:58.492Z,64.50
2019-02-09T20:08:29.831Z,63.90
2019-02-09T20:11:01.301Z,63.90
2019-02-09T20:13:32.812Z,64.00
2019-02-09T20:16:04.002Z,63.90
2019-02-09T20:18:35.671Z,63.90
2019-02-09T20:21:07.224Z,64.00
2019-02-09T20:23:38.565Z,64.10
2019-02-09T20:26:09.943Z,64.10
2019-02-09T20:28:41.454Z,64.00
2019-02-09T20:31:12.885Z,64.00
2019-02-09T20:33:44.351Z,64.00
2019-02-09T20:36:16.287Z,63.80
2019-02-09T20:38:47.797Z,63.70
2019-02-09T20:41:19.076Z,63.80
2019-02-09T20:43:50.355Z,63.80
2019-02-09T20:46:21.747Z,63.90
2019-02-09T20:48:52.836Z,63.90
2019-02-09T20:51:25.659Z,64.00
2019-02-09T20:53:57.246Z,63.90
2019-02-09T20:56:28.725Z,63.80
2019-02-09T20:59:00.436Z,63.80
2019-02-09T21:01:31.520Z,63.80
2019-02-09T21:04:03.031Z,63.80
2019-02-09T21:06:34.345Z,63.70
2019-02-09T21:09:08.334Z,63.70
2019-02-09T21:11:39.456Z,63.80
2019-02-09T21:14:10.928Z,63.90
2019-02-09T21:16:42.393Z,63.80
2019-02-09T21:19:13.517Z,63.90
2019-02-09T21:21:44.918Z,64.00
2019-02-09T21:24:16.542Z,64.00
2019-02-09T21:26:47.953Z,64.00
2019-02-09T21:29:19.204Z,64.00
2019-02-09T21:31:50.583Z,64.10
2019-02-09T21:34:21.827Z,64.10
2019-02-09T21:36:53.414Z,64.20
2019-02-09T21:39:24.761Z,64.10
2019-02-09T21:41:56.373Z,64.00
2019-02-09T21:44:28.143Z,64.00
2019-02-09T21:46:59.751Z,64.00
2019-02-09T21:49:30.883Z,63.90
2019-02-09T21:52:02.087Z,63.90
2019-02-09T21:54:33.596Z,63.90
2019-02-09T21:57:04.864Z,63.80
2019-02-09T21:59:37.305Z,63.90
2019-02-09T22:02:08.874Z,63.60
2019-02-09T22:04:40.433Z,64.00
2019-02-09T22:07:11.626Z,64.00
2019-02-09T22:09:42.687Z,63.80
2019-02-09T22:12:14.235Z,63.90
2019-02-09T22:14:45.660Z,63.60
2019-02-09T22:17:19.641Z,63.60
2019-02-09T22:19:50.855Z,63.40
2019-02-09T22:22:22.234Z,63.30
2019-02-09T22:24:53.635Z,63.20
2019-02-09T22:27:25.100Z,63.10
2019-02-09T22:29:56.633Z,62.90
2019-02-09T22:32:27.949Z,62.70
2019-02-09T22:34:59.006Z,62.50
2019-02-09T22:37:30.598Z,62.10
2019-02-09T22:40:08.273Z,62.00
2019-02-09T22:42:39.994Z,61.90
2019-02-09T22:45:11.663Z,61.60
2019-02-09T22:47:43.059Z,61.50
2019-02-09T22:50:20.462Z,61.40
2019-02-09T22:52:52.030Z,61.40
2019-02-09T22:55:23.680Z,61.30
2019-02-09T22:57:55.615Z,61.40
2019-02-09T23:01:13.575Z,61.40
2019-02-09T23:03:49.386Z,61.20
2019-02-09T23:06:52.745Z,61.00
2019-02-09T23:09:28.495Z,60.90
2019-02-09T23:11:59.716Z,60.70
2019-02-09T23:14:30.899Z,60.70
2019-02-09T23:17:02.186Z,60.50
2019-02-09T23:19:33.531Z,60.50
2019-02-09T23:22:06.706Z,60.50
2019-02-09T23:24:37.916Z,60.50
2019-02-09T23:27:09.481Z,60.60
2019-02-09T23:29:40.850Z,60.70
2019-02-09T23:32:11.874Z,60.40
2019-02-09T23:34:43.017Z,60.30
2019-02-09T23:37:14.317Z,60.40
2019-02-09T23:39:45.486Z,61.20
2019-02-09T23:42:16.574Z,60.40
2019-02-09T23:44:48.159Z,60.50
2019-02-09T23:47:19.108Z,60.60
2019-02-09T23:49:50.463Z,60.10
2019-02-09T23:52:21.977Z,60.60
2019-02-09T23:54:54.892Z,60.50
2019-02-09T23:57:26.187Z,60.40
2019-02-09T23:59:57.280Z,60.40
